Tiempo atmosférico en la estación meteorológica de Lugo Aeropuerto, Lugo (445 m.)



Fecha
DESCASC
Temp. máxima en grados centígrados (hora)
DESCASC
Temp. mínima en grados centígrados (hora)
DESCASC
Temp. media en grados centígrados
DESCASC
Racha de viento máxima en m/sg (hora)
DESCASC
Velocidad máxima media en intervalos de 10 minutos(hora)
DESCASC
Precipitaciones diarias en mm
DESCASC
Precipitaciones de 00:00 a 06:00 en mm
DESCASC
Precipitaciones de 06:00 a 12:00 en mm
DESCASC
Precipitaciones de 12:00 a 18:00 en mm
DESCASC
Precipitaciones de 18:00 a 24:00 en mm
DESCASC
08-12-2019 13.6 (14:50) 5.4 (20:40) 9.5 6.67 (00:40) 2.78 (02:40) 4.8 0 4.8 0 0
07-12-2019 13 (15:10) 4.4 (08:30) 8.7 5.28 (14:30) 2.78 (14:30) 0 0 0 0 0
06-12-2019 13.8 (16:10) 3.1 (00:00) 8.5 4.44 (15:00) 2.78 (14:40) 0 0 0 0 0
05-12-2019 11.8 (12:40) 0.4 (00:00) 6.1 8.61 (15:40) 4.44 (15:50) 0 0 0 0 0
04-12-2019 8.9 (16:10) -4.5 (-00:0) 2.2 5.28 (18:00) 2.5 (18:00) 0 0 0 0 0
03-12-2019 9.8 (14:20) -1 (-00:0) 4.4 6.11 (16:10) 3.33 (16:10) 0 0 0 0 0
02-12-2019 8.9 (13:00) 2.6 (00:00) 5.7 11.39 (13:40) 4.72 (01:20) 1 0.4 0.4 0.2 0
01-12-2019 10.2 (14:50) 6 (00:00) 8.1 9.44 (22:40) 4.17 (15:10) 7.4 1 0.4 2.6 3.4
30-11-2019 13.6 (05:00) 8.2 (00:00) 10.9 10.56 (03:20) 5 (09:50) 14.2 5.4 3.4 2.6 2.8
29-11-2019 16.3 (15:40) 8.1 (00:00) 12.2 8.89 (23:50) 3.89 (14:30) 0 0 0 0 0
28-11-2019 13.3 (19:50) 10.2 (00:00) 11.8 7.5 (15:40) 4.17 (20:10) 10.2 0.8 0.6 8.2 0.6
27-11-2019 11.2 (12:40) 9.1 (00:00) 10.2 10.83 (00:10) 6.11 (00:10) 8.6 1 0 5 2.6
26-11-2019 15.5 (13:00) 9 (00:00) 12.3 15.83 (17:40) 7.5 (17:20) 10 0 0.2 7.2 2.6
25-11-2019 13.4 (16:00) 10.5 (00:00) 11.9 9.44 (23:30) 5 (04:50) 3 1.2 1.6 0.2 0
24-11-2019 12.5 (23:40) 6.8 (00:00) 9.7 12.22 (18:20) 5.28 (18:30) 2.8 0 0.2 1 1.6
23-11-2019 11.5 (14:00) 5.9 (00:00) 8.7 11.67 (00:20) 3.61 (21:30) 7.2 2 1.6 3.6 0
22-11-2019 12.2 (13:00) 7.7 (00:00) 9.9 19.17 (11:40) 7.78 (11:40) 28.8 0 8 7 13.8
21-11-2019 11.6 (13:30) 5.5 (00:00) 8.6 8.89 (15:30) 5.28 (15:40) 0.4 0.4 0 0 0
20-11-2019 11.8 (14:00) 3.9 (00:00) 7.9 7.5 (15:10) 3.61 (15:10) 1.4 0 0 0.8 0.6
19-11-2019 10 (13:10) 0.6 (00:00) 5.3 7.5 (13:00) 3.06 (15:50) 1.2 0 0 0.8 0.4
18-11-2019 10.6 (15:30) 2.7 (00:00) 6.7 2.78 (02:20) 1.39 (04:10) 2 1.6 0.4 0 0
17-11-2019 11.2 (15:30) 4.5 (00:00) 7.8 8.61 (13:40) 3.06 (13:50) 3 0 0.4 0.8 1.8
16-11-2019 9.4 (13:30) 3.3 (00:00) 6.3 6.39 (14:00) 3.89 (13:20) 7 5.6 0.4 1 0
15-11-2019 6.7 (13:00) 2.7 (00:00) 4.7 8.61 (00:30) 3.89 (00:30) 26.2 7.6 1.6 12 5
14-11-2019 9 (14:40) 2.5 (00:00) 5.8 12.78 (04:50) 5.83 (16:50) 32.6 7.6 13 3.4 8.6
13-11-2019 13.3 (00:10) 7.5 (00:00) 10.4 10.28 (21:20) 5.28 (21:20) 9.8 4.6 0.4 0 4.8
12-11-2019 13.2 (23:20) 6.2 (00:00) 9.7 9.72 (15:40) 4.72 (16:20) 23.4 0.2 0.8 9.2 13.2

Gráficas

Temp. máximas Temp. mínimas Temp. medias Precipitaciones Rachas de viento máximas Velocidades máximas media en intervalos de 10 minutos

Datos horarios

Fecha y hora oficial Temperatura (ºC) Velocidad del viento (km/h) Dirección del viento Racha (km/h) Dirección de racha Precipitación (mm) Presión (hPa) Tendencia (hPa) Humedad (%)
2019-12-11 23:00:00 7.4 8 Sudoeste 22 Sudoeste 0.4 972.2 -0.9 95
2019-12-11 22:00:00 7.4 11 Sudoeste 18 Sudoeste 0.2 972.2 -1.1 95
2019-12-11 21:00:00 7.6 12 Sudoeste 22 Oeste 0 972.8 -0.6 92
2019-12-11 20:00:00 7.4 12 Sudoeste 18 Sudoeste 0 973.1 -0.2 94
2019-12-11 19:00:00 7.7 9 Sudoeste 19 Oeste 0.2 973.3 0.6 93
2019-12-11 18:00:00 7.9 13 Oeste 28 Oeste 0 973.4 0 92
2019-12-11 17:00:00 8 15 Oeste 33 Oeste 0.2 973.3 -0.5 92
2019-12-11 16:00:00 8.1 10 Sudoeste 24 Oeste 0.2 972.7 -1.6 90
2019-12-11 15:00:00 7.4 11 Sudoeste 21 Oeste 0.4 973.4 -1.6 93
2019-12-11 14:00:00 8.1 10 Oeste 25 Oeste 0 973.8 -1 86
2019-12-11 13:00:00 8.2 13 Sudoeste 25 Sudoeste 0 974.3 0 81
2019-12-11 12:00:00 7.8 11 Sudoeste 22 Sudoeste 0 975 1.4 85
2019-12-11 11:00:00 6.4 10 Sudoeste 19 Sudoeste 0 974.8 1.8 91
2019-12-11 10:00:00 5.2 3 Sur 15 Oeste 0.2 974.3 1.8 96
2019-12-11 09:00:00 4.3 5 Sudoeste 9 Sudoeste 0 973.6 1.9 95
2019-12-11 08:00:00 5.3 5 Sudoeste 10 Sudoeste 0 973 1.5 93
2019-12-11 07:00:00 6.6 3 Oeste 17 Noroeste 0 972.5 1.6 95
2019-12-11 06:00:00 7.1 2 Oeste 6 Noroeste 0.2 971.7 1.8 96
2019-12-11 05:00:00 7.1 3 Noroeste 17 Noroeste 1.8 971.5 2.2 98
2019-12-11 04:00:00 7.4 6 Noroeste 24 Noroeste 1.2 970.9 1.9 98
2019-12-11 03:00:00 8.4 9 Noroeste 23 Noroeste 0.4 969.9 0.6 98
2019-12-11 02:00:00 8.7 11 Sudoeste 26 Sudoeste 0.4 969.3 -0.6 95
2019-12-11 01:00:00 9 12 Sudoeste 29 Sur 0.2 969 -1.2 89
2019-12-11 00:00:00 10.2 10 Sudoeste 21 Oeste 0 969.3 -1.6 72
2019-12-10 23:00:00 10.1 8 Sur 23 Sur 0 969.9 -1.4 58
2019-12-10 22:00:00 10.4 11 Sur 24 Sur 0 970.2 -0.9 53
2019-12-10 21:00:00 10.7 11 Sudoeste 27 Sudoeste 0 970.9 -0.7 51
2019-12-10 20:00:00 11 14 Sudoeste 23 Sudoeste 0 971.3 -0.3 44
2019-12-10 19:00:00 10.5 7 Sur 17 Sur 0 971.1 -1 55
2019-12-10 18:00:00 10.8 5 Sudoeste 19 Sur 0 971.6 -1 60
2019-12-10 17:00:00 12 8 Sur 23 Sudeste 0 971.6 -1.6 58
2019-12-10 16:00:00 12.1 10 Sudoeste 27 Sudoeste 0 972.1 -2.1 54
2019-12-10 15:00:00 11.1 7 Sudoeste 19 Sudoeste 0 972.6 -2.7 64
2019-12-10 14:00:00 10.3 8 Sudoeste 18 Sudoeste 0 973.2 -2.2 63
2019-12-10 13:00:00 8.1 5 Sur 13 Sudeste 0 974.2 -1.6 82
2019-12-10 12:00:00 5.6 3 Nordeste 9 Norte 0 975.3 -0.6 98
2019-12-10 11:00:00 3.7 3 Oeste 6 Sudeste 0 975.4 -0.6 100
2019-12-10 10:00:00 1.3 5 Sudeste 8 Sudeste 0 975.8 -0.4 100
2019-12-10 09:00:00 0 3 Sudeste 5 Sudeste 0 975.9 -0.7 99
2019-12-10 08:00:00 -0.2 2 Sudeste 6 Sudeste 0 976 -0.9 98
2019-12-10 07:00:00 -0.1 3 Sudeste 5 Sur 0 976.2 -1.4 99
2019-12-10 06:00:00 0.3 0 Calma 3 Sudoeste 0 976.6 -1.2 98
2019-12-10 05:00:00 0.4 0 Calma 4 Sudeste 0 976.9 -1.4 100
2019-12-10 04:00:00 0.5 3 Sudeste 8 Sudeste 0 977.6 -1.3 100
2019-12-10 03:00:00 0.3 2 Sudoeste 5 Oeste 0 977.8 -1.8 97
2019-12-10 02:00:00 0.6 3 Sudoeste 7 Sudeste 0 978.3 -1 97
2019-12-10 01:00:00 1.3 3 Este 8 Sudeste 0 978.9 -0.6 98
2019-12-10 00:00:00 2.1 3 Sur 8 Sudeste 0 979.6 0.1 96
2019-12-09 23:00:00 3.2 5 Sudeste 9 Sur 0 979.3 -0.3 98
2019-12-09 22:00:00 4 2 Sudeste 6 Sudeste 0 979.5 0 96
2019-12-09 21:00:00 5.9 0 Calma 8 Sudeste 0 979.5 -0.1 95
2019-12-09 20:00:00 6.6 5 Sudeste 8 Sur 0 979.6 0.2 95
2019-12-09 19:00:00 7.8 6 Sudeste 9 Sudeste 0 979.5 0.2 93
2019-12-09 18:00:00 9.9 2 Sur 4 Oeste 0 979.6 0.3 86
2019-12-09 17:00:00 10.9 2 Sudoeste 5 Este 0 979.4 0.1 78
2019-12-09 16:00:00 11 0 Calma 5 Este 0 979.3 -0.7 78
2019-12-09 15:00:00 10.8 3 Este 7 Oeste 0 979.3 -1.2 78
2019-12-09 14:00:00 10.7 4 Oeste 10 Sudoeste 0 979.3 -1.1 80
2019-12-09 13:00:00 10.1 6 Oeste 10 Sudoeste 0 980 0.4 83
2019-12-09 12:00:00 9.5 4 Sur 11 Sur 0 980.5 1.2 84
2019-12-09 11:00:00 8.6 2 Sudoeste 10 Sur 0 980.4 1.6 86
2019-12-09 10:00:00 7.4 8 Sudeste 13 Sur 0 979.6 1.5 89
2019-12-09 09:00:00 7.1 3 Sur 13 Sudoeste 0 979.3 1.2 90
2019-12-09 08:00:00 6.7 7 Sudoeste 13 Sudoeste 0 978.8 0.7 91
2019-12-09 07:00:00 6.6 8 Sudoeste 15 Sur 0 978.1 0.3 91
2019-12-09 06:00:00 7.1 6 Sudoeste 16 Sudoeste 0 978.1 0.4 90
2019-12-09 05:00:00 6.8 8 Sudoeste 14 Sudoeste 0 978.1 0.6 91
2019-12-09 04:00:00 6.6 6 Sudoeste 14 Sur 0 977.8 0.4 93
2019-12-09 03:00:00 5.9 5 Sudoeste 10 Sudoeste 0 977.7 0.5 98
2019-12-09 02:00:00 5.2 5 Sudoeste 9 Sudoeste 0 977.5 0.4 97
2019-12-09 01:00:00 6.6 7 Sudoeste 11 Sudoeste 0 977.4 0.9 94
2019-12-09 00:00:00 6.2 4 Sudoeste 10 Sudoeste 0 977.2 0.9 96
2019-12-08 23:00:00 6.6 4 Sudoeste 7 Oeste 0 977.1 1.6 100
2019-12-08 22:00:00 6.1 2 Sur 6 Sur 0 976.5 1.4 100
2019-12-08 21:00:00 5.6 4 Sur 8 Sur 0 976.3 1.6 100
2019-12-08 20:00:00 6 3 Sur 5 Sudoeste 0 975.5 2.1 95
2019-12-08 19:00:00 7.6 2 Sur 5 Sudoeste 0 975.1 2.1 95
2019-12-08 18:00:00 9.5 0 Calma 8 Norte 0 974.7 2.2 90
2019-12-08 17:00:00 11.1 3 Noroeste 17 Norte 0 973.4 1.3 93
2019-12-08 16:00:00 11.7 6 Noroeste 20 Noroeste 0 973 0.9 96
2019-12-08 15:00:00 13.5 5 Noroeste 17 Noroeste 0 972.5 -0.1 96
2019-12-08 14:00:00 13.1 6 Sudoeste 16 Sudoeste 0 972.1 0 98
2019-12-08 13:00:00 12.7 8 Sudoeste 15 Sudoeste 0 972.1 0.8 98
2019-12-08 12:00:00 12.1 6 Sudoeste 17 Sudoeste 0.4 972.6 1.6 99
2019-12-08 11:00:00 11.7 7 Sudoeste 16 Sudoeste 0 972.1 1.8 98
2019-12-08 10:00:00 11.4 7 Sudoeste 15 Sur 2.6 971.3 1 98
2019-12-08 09:00:00 11.2 5 Sudoeste 18 Sur 1.6 971 0.6 98
2019-12-08 08:00:00 11.1 8 Sur 22 Sur 0 970.3 -0.2 96
2019-12-08 07:00:00 11.2 8 Sudoeste 18 Sur 0.2 970.3 -0.4 96
2019-12-08 06:00:00 11.2 8 Sudoeste 19 Sudoeste 0 970.4 -0.4 95
2019-12-08 05:00:00 11.3 8 Sur 19 Sudoeste 0 970.5 -0.4 96
2019-12-08 04:00:00 11.3 8 Sudoeste 22 Sudoeste 0 970.7 -0.6 95
2019-12-08 03:00:00 11.2 9 Sudoeste 24 Sur 0 970.8 -0.7 95
2019-12-08 02:00:00 11.3 9 Sudoeste 22 Sudoeste 0 970.9 -0.2 94
2019-12-08 01:00:00 11.3 9 Sudoeste 24 Sur 0 971.3 0 94
2019-12-08 00:00:00 11.1 6 Sudoeste 17 Sur 0 971.5 0.5 93
2019-12-07 23:00:00 11 7 Sur 18 Sur 0 971.1 -0.1 91
2019-12-07 22:00:00 11.1 5 Sur 16 Sur 0 971.3 0.4 87
2019-12-07 21:00:00 11.6 6 Sur 17 Sudeste 0 971 0.2 83
2019-12-07 20:00:00 11.5 5 Sudoeste 15 Sur 0 971.2 0.5 82
2019-12-07 19:00:00 11.5 5 Sur 12 Sudoeste 0 970.9 0.5 78
2019-12-07 18:00:00 12 3 Sudoeste 12 Sudoeste 0 970.8 0.4 79
2019-12-07 17:00:00 12.5 3 Sur 18 Sudoeste 0 970.7 0 83
2019-12-07 16:00:00 12.7 8 Sudoeste 19 Sudoeste 0 970.4 -1.1 80
2019-12-07 15:00:00 12.9 6 Sur 19 Sudoeste 0 970.4 -1.6 74
2019-12-07 14:00:00 12.6 5 Sur 16 Sur 0 970.7 -1.3 75
2019-12-07 13:00:00 11.4 8 Sudoeste 18 Sudoeste 0 971.5 -0.1 78
2019-12-07 12:00:00 11.2 6 Sudeste 15 Sur 0 972 0.8 75
2019-12-07 11:00:00 8.9 5 Sur 17 Sudoeste 0 972 1.2 88
2019-12-07 10:00:00 5.4 2 Sur 5 Noroeste 0 971.6 0.8 100
2019-12-07 09:00:00 4.5 2 Sudeste 7 Noroeste 0 971.2 0.6 98
2019-12-07 08:00:00 4.8 2 Sudeste 5 Sudeste 0 970.8 -0.1 96
2019-12-07 07:00:00 5 2 Sudeste 5 Norte 0 970.8 -0.2 96
2019-12-07 06:00:00 6.4 0 Calma 5 Norte 0 970.6 -0.3 95
2019-12-07 05:00:00 6.7 0 Calma 4 Sudeste 0 970.9 0.3 98
2019-12-07 04:00:00 6.5 0 Calma 4 Noroeste 0 971 -0.4 98
2019-12-07 03:00:00 6 2 Sur 6 Norte 0 970.9 -0.7 99
2019-12-07 02:00:00 6.7 3 Noroeste 10 Sur 0 970.6 -0.9 98
2019-12-07 01:00:00 6.4 3 Sudeste 5 Sudeste 0 971.4 0.1 100
2019-12-07 00:00:00 5.1 3 Sur 8 Sur 0 971.6 0.3 100
2019-12-06 23:00:00 4.5 3 Sur 6 Sur 0 971.5 0.9 96
2019-12-06 22:00:00 4.5 4 Sudeste 8 Sudeste 0 971.3 1.1 97
2019-12-06 21:00:00 5.1 0 Calma 9 Sudeste 0 971.3 1.3 95
2019-12-06 20:00:00 6.1 2 Sudeste 5 Sur 0 970.6 0.9 93
2019-12-06 19:00:00 7.3 3 Sur 8 Sudeste 0 970.2 0.6 89
2019-12-06 18:00:00 10.3 3 Sur 7 Sudoeste 0 970 -0.1 79
2019-12-06 17:00:00 12.7 4 Sudoeste 10 Oeste 0 969.7 -1.1 68
2019-12-06 16:00:00 13.4 5 Oeste 14 Sudoeste 0 969.6 -1.6 63
2019-12-06 15:00:00 12.6 8 Sudoeste 16 Sudoeste 0 970.1 -1.3 66
2019-12-06 14:00:00 11.7 9 Oeste 15 Oeste 0 970.8 -1.3 72
2019-12-06 13:00:00 8.2 2 Sur 9 Nordeste 0 971.2 -0.6 96
2019-12-06 12:00:00 7.7 3 Nordeste 8 Norte 0 971.4 0.8 100
2019-12-06 11:00:00 4.8 2 Este 6 Este 0 972.1 2.1 100
2019-12-06 10:00:00 4 3 Sudeste 5 Sudeste 0 971.8 1.3 100
2019-12-06 09:00:00 3.2 4 Sudeste 9 Noroeste 0 970.6 0.6 100
2019-12-06 08:00:00 3.6 3 Sudoeste 6 Sur 0 970 -0.2 100
2019-12-06 07:00:00 3.1 4 Sudeste 7 Sur 0 970.5 -0.2 100
2019-12-06 06:00:00 3.3 0 Calma 6 Norte 0 970 -0.5 98
2019-12-06 05:00:00 3.7 3 Sudoeste 7 Sudeste 0 970.2 -0.5 99
2019-12-06 04:00:00 4.1 4 Sudeste 7 Sudeste 0 970.7 0.2 100
2019-12-06 03:00:00 3.8 2 Sudoeste 10 Oeste 0 970.5 -0.5 100
2019-12-06 02:00:00 3.6 4 Oeste 8 Oeste 0 970.7 0.1 98
2019-12-06 01:00:00 4.7 5 Sudeste 8 Sudeste 0 970.5 -0.1 100
2019-12-06 00:00:00 3.1 3 Sudeste 5 Sur 0 971 0.5 97
2019-12-05 23:00:00 3.8 0 Calma 6 Sudeste 0 970.6 0.6 98
2019-12-05 22:00:00 4.5 2 Sur 7 Sudeste 0 970.6 0.8 95
2019-12-05 21:00:00 5.5 0 Calma 4 Sudeste 0 970.5 1.1 95
2019-12-05 20:00:00 6.5 0 Calma 6 Nordeste 0 970 0.8 95
2019-12-05 19:00:00 7.4 2 Norte 10 Nordeste 0 969.8 0.8 94
2019-12-05 18:00:00 9 3 Nordeste 22 Nordeste 0 969.4 0.2 90
2019-12-05 17:00:00 10.7 9 Nordeste 28 Este 0 969.2 -0.4 83
2019-12-05 16:00:00 11.3 15 Nordeste 31 Este 0 969 -0.7 80
2019-12-05 15:00:00 11.3 13 Nordeste 30 Nordeste 0 969.2 -0.7 81
2019-12-05 14:00:00 10.9 13 Nordeste 25 Nordeste 0 969.6 0.1 84
2019-12-05 13:00:00 11 10 Nordeste 23 Nordeste 0 969.7 0.9 83
2019-12-05 12:00:00 10.7 9 Nordeste 21 Este 0 969.9 1.7 84
2019-12-05 11:00:00 8.9 5 Nordeste 16 Nordeste 0 969.5 1.6 88
2019-12-05 10:00:00 7.5 5 Este 16 Nordeste 0 968.8 1.3 95
2019-12-05 09:00:00 7.1 6 Este 19 Nordeste 0 968.2 0.9 97
2019-12-05 08:00:00 7.2 3 Nordeste 21 Este 0 967.9 0.7 96
2019-12-05 07:00:00 6.9 5 Nordeste 15 Nordeste 0 967.5 0.5 97
2019-12-05 06:00:00 5.7 4 Norte 18 Nordeste 0 967.3 0.6 99
2019-12-05 05:00:00 4.4 4 Nordeste 11 Nordeste 0 967.2 0.5 100
2019-12-05 04:00:00 2.7 4 Nordeste 13 Este 0 967 0.2 100
2019-12-05 03:00:00 0.7 3 Sur 4 Sudoeste 0 966.7 0.3 100
2019-12-05 02:00:00 0.6 0 Calma 5 Sudeste 0 966.7 0.3 99
2019-12-05 01:00:00 1 3 Sur 9 Noroeste 0 966.8 1.2 99
2019-12-05 00:00:00 0.9 3 Oeste 6 Sur 0 966.4 1.1 100
2019-12-04 23:00:00 0.7 0 Calma 5 Sur 0 966.4 2 96
2019-12-04 22:00:00 1.4 2 Sur 7 Nordeste 0 965.6 1.6 94
2019-12-04 21:00:00 1.5 2 Sudoeste 7 Noroeste 0 965.3 1.9 94
2019-12-04 20:00:00 1.7 3 Oeste 5 Oeste 0 964.4 1.7 89
2019-12-04 19:00:00 4.4 0 Calma 15 Nordeste 0 964 1.6 80
2019-12-04 18:00:00 6.2 9 Este 19 Nordeste 0 963.4 1.3 70
2019-12-04 17:00:00 7.7 4 Nordeste 15 Nordeste 0 962.7 0.4 71
2019-12-04 16:00:00 8.7 2 Nordeste 5 Nordeste 0 962.4 -0.4 75
2019-12-04 15:00:00 6.5 2 Norte 11 Norte 0 962.1 -1 86
2019-12-04 14:00:00 3.8 3 Norte 6 Noroeste 0 962.3 -0.7 92
2019-12-04 13:00:00 1.6 3 Noroeste 6 Noroeste 0 962.8 0.3 96
2019-12-04 12:00:00 -0.3 0 Calma 4 Noroeste 0 963.1 1.1 97
2019-12-04 11:00:00 -2.4 3 Noroeste 4 Norte 0 963 1.7 96
2019-12-04 10:00:00 -3.1 0 Calma 3 Este 0 962.5 1.3 98
2019-12-04 09:00:00 -4.3 0 Calma 6 Noroeste 0 962 1.1 96
2019-12-04 08:00:00 -4.1 2 Sur 4 Oeste 0 961.3 0 93
2019-12-04 07:00:00 -3.8 0 Calma 4 Noroeste 0 961.2 -0.3 93
2019-12-04 06:00:00 -3.4 2 Oeste 4 Noroeste 0 960.9 -0.7 94
2019-12-04 05:00:00 -3 2 Noroeste 4 Oeste 0 961.3 -0.4 97
2019-12-04 04:00:00 -2.5 3 Nordeste 4 Nordeste 0 961.5 -0.6 96
2019-12-04 03:00:00 -2.1 3 Sur 4 Sur 0 961.6 -0.7 96
2019-12-04 02:00:00 -1.6 2 Sur 4 Sudeste 0 961.7 -0.7 93
2019-12-04 01:00:00 -1.3 2 Oeste 8 Sudeste 0 962.1 -0.2 93
2019-12-04 00:00:00 -1 2 Sur 6 Sur 0 962.3 -0.1 95
2019-12-03 23:00:00 -0.6 0 Calma 8 Sudeste 0 962.4 -0.4 96
2019-12-03 22:00:00 0 4 Sur 4 Sur 0 962.3 -0.7 95
2019-12-03 21:00:00 0.9 2 Sudeste 5 Sudeste 0 962.4 -0.8 93
2019-12-03 20:00:00 1.9 0 Calma 6 Sudeste 0 962.8 -0.3 90
2019-12-03 19:00:00 3.7 3 Sudeste 7 Este 0 963 -0.4 87
2019-12-03 18:00:00 5.9 3 Nordeste 15 Nordeste 0 963.2 -0.6 80
2019-12-03 17:00:00 8.4 4 Nordeste 22 Este 0 963.1 -1.6 70
2019-12-03 16:00:00 9.2 9 Nordeste 22 Este 0 963.4 -2.3 66
2019-12-03 15:00:00 9.6 10 Nordeste 21 Nordeste 0 963.8 -3 64
2019-12-03 14:00:00 9.6 8 Nordeste 21 Nordeste 0 964.7 -2.5 65
2019-12-03 13:00:00 9 7 Nordeste 17 Este 0 965.7 -1.5 68
2019-12-03 12:00:00 8 6 Nordeste 16 Nordeste 0 966.8 -0.5 71
2019-12-03 11:00:00 5.5 5 Nordeste 10 Este 0 967.2 0.1 83
2019-12-03 10:00:00 2.1 3 Sur 8 Nordeste 0 967.2 0.1 93
2019-12-03 09:00:00 0.1 3 Oeste 10 Noroeste 0 967.3 0 97
2019-12-03 08:00:00 0 2 Sudoeste 8 Oeste 0 967.1 -0.6 96
2019-12-03 07:00:00 0.7 5 Sudoeste 9 Oeste 0 967.1 -1.5 93
2019-12-03 06:00:00 1.6 4 Oeste 17 Nordeste 0 967.3 -1.6 90
2019-12-03 05:00:00 2.2 6 Este 16 Nordeste 0 967.7 -1.5 91
2019-12-03 04:00:00 1.5 5 Nordeste 10 Nordeste 0 968.6 -1.1 93
2019-12-03 03:00:00 1.3 3 Norte 12 Este 0 968.9 -1.2 94
2019-12-03 02:00:00 2.4 3 Sudoeste 10 Norte 0 969.2 -1.2 88
2019-12-03 01:00:00 2.3 4 Oeste 9 Noroeste 0 969.7 -0.9 90
2019-12-03 00:00:00 2.6 3 Sudeste 11 Nordeste 0 970.1 -0.4 91
2019-12-02 23:00:00 3.5 6 Nordeste 18 Este 0 970.4 0.4 89
2019-12-02 22:00:00 3.5 5 Este 10 Sudoeste 0 970.6 0.7 92
2019-12-02 21:00:00 5.1 4 Nordeste 21 Nordeste 0 970.5 0.9 84
2019-12-02 20:00:00 5.7 10 Nordeste 29 Nordeste 0 970 0.3 85
2019-12-02 19:00:00 6.1 16 Nordeste 33 Nordeste 0 969.9 0.4 86
2019-12-02 18:00:00 6.8 12 Nordeste 26 Este 0 969.6 0.1 86
2019-12-02 17:00:00 7.5 8 Nordeste 31 Nordeste 0 969.7 0.1 85
2019-12-02 16:00:00 7.8 11 Nordeste 28 Este 0 969.5 -0.8 82
2019-12-02 15:00:00 8 8 Nordeste 33 Nordeste 0 969.5 -1.5 80
2019-12-02 14:00:00 8 13 Nordeste 41 Nordeste 0 969.6 -1.1 83
2019-12-02 13:00:00 8.8 9 Nordeste 23 Nordeste 0.2 970.3 0.2 85
2019-12-02 12:00:00 8.1 12 Nordeste 31 Nordeste 0 971 1.8 94
2019-12-02 11:00:00 7.2 9 Nordeste 26 Nordeste 0 970.7 2 96
2019-12-02 10:00:00 7.4 8 Nordeste 33 Nordeste 0 970.1 2.4 95
2019-12-02 09:00:00 7.1 7 Nordeste 27 Este 0.4 969.2 1.7 99
2019-12-02 08:00:00 6.7 3 Nordeste 21 Nordeste 0 968.7 1.4 96
2019-12-02 07:00:00 7 8 Nordeste 20 Este 0 967.7 0.4 97
2019-12-02 06:00:00 6.4 4 Nordeste 13 Nordeste 0 967.5 0.7 97
2019-12-02 05:00:00 6.5 2 Norte 14 Nordeste 0 967.3 0.5 96
2019-12-02 04:00:00 6.6 10 Nordeste 28 Nordeste 0 967.3 0.5 95
2019-12-02 03:00:00 6.2 12 Nordeste 33 Nordeste 0 966.8 0.2 94
2019-12-02 02:00:00 5.9 16 Nordeste 39 Nordeste 0.2 966.8 0.1 94
2019-12-02 01:00:00 6 9 Nordeste 34 Nordeste 0.2 966.8 0.2 98
2019-12-02 00:00:00 6.1 11 Nordeste 32 Este 0.6 966.6 -0.2 98
2019-12-01 23:00:00 6 10 Nordeste 34 Nordeste 0.4 966.7 0.2 97
2019-12-01 22:00:00 6.3 6 Nordeste 26 Nordeste 0.6 966.6 1.1 96
2019-12-01 21:00:00 6.3 5 Norte 24 Nordeste 1 966.8 2.5 97
2019-12-01 20:00:00 6.6 5 Nordeste 25 Este 0.6 966.5 3.1 94
2019-12-01 19:00:00 6.9 9 Nordeste 28 Este 0.2 965.5 2.9 97
2019-12-01 18:00:00 7.3 7 Nordeste 26 Nordeste 0.6 964.3 2.1 97
2019-12-01 17:00:00 8.2 8 Nordeste 26 Nordeste 1.2 963.4 1.3 97
2019-12-01 16:00:00 9.1 6 Nordeste 29 Este 0.6 962.6 0.7 95
2019-12-01 15:00:00 10 12 Nordeste 27 Este 0 962.2 0.1 86
2019-12-01 14:00:00 9.4 10 Nordeste 23 Nordeste 0.2 962.1 0.9 89
2019-12-01 13:00:00 9.5 5 Nordeste 22 Nordeste 0 961.9 2 92
2019-12-01 12:00:00 9.6 9 Nordeste 24 Este 0 962.1 3.5 88
2019-12-01 11:00:00 9.2 5 Nordeste 17 Nordeste 0 961.2 3.3 93
2019-12-01 10:00:00 8 5 Nordeste 13 Nordeste 0 959.9 3.3 94
2019-12-01 09:00:00 7.2 0 Calma 6 Este 0 958.6 3.1 98
2019-12-01 08:00:00 7.2 2 Este 13 Este 0 957.9 2.8 98
2019-12-01 07:00:00 7 5 Nordeste 11 Este 0.4 956.6 1.5 97
2019-12-01 06:00:00 7.2 2 Nordeste 13 Sudeste 0.4 955.5 0.2 95
2019-12-01 05:00:00 7.6 7 Sur 27 Sur 0 955.1 -0.6 87
2019-12-01 04:00:00 7.9 9 Sur 28 Sur 0 955.1 -1.5 89
2019-12-01 03:00:00 8 8 Sur 25 Sudoeste 0.2 955.3 -1.9 91
2019-12-01 02:00:00 8 9 Sur 30 Sudoeste 0.4 955.7 -2.5 91
2019-12-01 01:00:00 8.1 9 Sur 30 Sur 0 956.6 -2.4 93
2019-12-01 00:00:00 8.2 10 Sur 27 Sur 0.2 957.2 -2.7 94
2019-11-30 23:00:00 8.2 8 Sur 27 Sur 0 958.2 -2.1 91
2019-11-30 22:00:00 8.3 11 Sur 27 Sudoeste 1.4 959 -1.8 94
2019-11-30 21:00:00 8.5 10 Sur 23 Sur 1.2 959.9 -1 94
2019-11-30 20:00:00 9 9 Sur 24 Sudoeste 0 960.3 -0.7 85
2019-11-30 19:00:00 9.1 9 Sudoeste 29 Sudoeste 0 960.8 -0.5 85
2019-11-30 18:00:00 9.4 11 Sudoeste 27 Sudoeste 0.2 960.9 -0.7 84
2019-11-30 17:00:00 9.7 12 Sudoeste 23 Sudoeste 0.6 961 -1.2 89
2019-11-30 16:00:00 9.3 12 Sudoeste 32 Oeste 0.2 961.3 -1.2 86
2019-11-30 15:00:00 10.2 13 Sudoeste 31 Sudoeste 0.2 961.6 -1.7 85
2019-11-30 14:00:00 9.1 9 Sudoeste 35 Oeste 1.4 962.2 -1.2 93
2019-11-30 13:00:00 11.5 15 Oeste 27 Sudoeste 0 962.5 -0.6 74
2019-11-30 12:00:00 10.6 13 Oeste 25 Oeste 0 963.3 0.8 80
2019-11-30 11:00:00 10.4 6 Sudoeste 23 Sudoeste 0 963.4 1.4 90
2019-11-30 10:00:00 9 17 Oeste 36 Oeste 2.6 963.1 1.2 89
2019-11-30 09:00:00 10.2 8 Sudoeste 18 Sudoeste 0 962.5 1.7 92
2019-11-30 08:00:00 10.5 12 Oeste 21 Sudoeste 0 962 0.8 92
2019-11-30 07:00:00 11.2 5 Oeste 30 Oeste 0.8 961.9 0.4 95
2019-11-30 06:00:00 13.4 15 Sudoeste 35 Sudoeste 0.2 960.8 -0.8 94
2019-11-30 05:00:00 13.5 17 Sudoeste 32 Sudoeste 0.2 961.2 -0.8 93
2019-11-30 04:00:00 13.5 14 Sudoeste 38 Sudoeste 1.4 961.5 -0.9 97
2019-11-30 03:00:00 13.3 14 Sudoeste 29 Sudoeste 1.2 961.6 -1.4 98
2019-11-30 02:00:00 13 11 Sur 32 Sudoeste 2.4 962 -1.6 97
2019-11-30 01:00:00 12.9 12 Sudoeste 31 Sur 0 962.4 -2.3 94
2019-11-30 00:00:00 12.6 12 Sur 32 Sur 0 963 -2 92
2019-11-29 23:00:00 12.8 7 Sudoeste 21 Sur 0 963.6 -2 84
2019-11-29 22:00:00 12.3 4 Sudoeste 15 Sur 0 964.7 -1.2 83
2019-11-29 21:00:00 10.8 4 Sur 11 Sudeste 0 965 -1 89
2019-11-29 20:00:00 11.8 0 Calma 10 Sur 0 965.6 -0.1 89
2019-11-29 19:00:00 12.4 5 Sur 9 Sur 0 965.9 0.4 87
2019-11-29 18:00:00 13.3 3 Sudeste 9 Oeste 0 966 0 85
2019-11-29 17:00:00 15.5 6 Sudoeste 21 Sudoeste 0 965.7 -0.8 69
2019-11-29 16:00:00 16 10 Sudoeste 21 Sudoeste 0 965.5 -1.7 65
2019-11-29 15:00:00 15.9 10 Sudoeste 24 Sudoeste 0 966 -1.7 70
2019-11-29 14:00:00 14 10 Sudoeste 18 Oeste 0 966.5 -1.3 82
2019-11-29 13:00:00 13.2 8 Sudoeste 18 Oeste 0 967.2 -0.2 85
2019-11-29 12:00:00 12.9 6 Sudoeste 13 Oeste 0 967.7 1.2 84
2019-11-29 11:00:00 10.6 6 Sudoeste 10 Sudoeste 0 967.8 1.6 94
2019-11-29 10:00:00 10 3 Sudoeste 10 Sur 0 967.4 1.7 97
2019-11-29 09:00:00 8.4 6 Sur 11 Sur 0 966.5 0.9 100
2019-11-29 08:00:00 8.4 6 Sudoeste 10 Sudoeste 0 966.2 1.1 99
2019-11-29 07:00:00 8.2 3 Sur 5 Sur 0 965.7 0.9 100
2019-11-29 06:00:00 8.3 3 Nordeste 7 Sudoeste 0 965.6 1.6 100
2019-11-29 05:00:00 8.3 2 Sudoeste 5 Sur 0 965.1 1.2 98
2019-11-29 04:00:00 9.5 2 Sur 8 Sur 0 964.8 1.1 95
2019-11-29 03:00:00 10.1 4 Sudoeste 9 Sudoeste 0 964 0.9 99
2019-11-29 02:00:00 10 5 Sudoeste 8 Sudoeste 0 963.9 1.2 100
2019-11-29 01:00:00 10 4 Sudeste 7 Sudeste 0 963.7 2 96
2019-11-29 00:00:00 11.4 3 Oeste 8 Sudoeste 0 963.1 2.2 94
2019-11-28 23:00:00 12 4 Oeste 19 Sudoeste 0 962.7 3.2 95
2019-11-28 22:00:00 12.5 7 Sudoeste 14 Sudoeste 0 961.7 3.4 97
2019-11-28 21:00:00 13 4 Oeste 23 Oeste 0 960.9 3.5 95
2019-11-28 20:00:00 13.2 12 Sudoeste 26 Oeste 0 959.5 2.7 96
2019-11-28 19:00:00 12.7 10 Sudoeste 20 Sudoeste 0.6 958.3 1.1 99
2019-11-28 18:00:00 12 9 Sudoeste 25 Sur 1.4 957.4 -0.6 99
2019-11-28 17:00:00 11.7 11 Sur 24 Sur 1.4 956.8 -2 97
2019-11-28 16:00:00 11.6 12 Sudoeste 27 Sudoeste 1.8 957.2 -2.5 96
2019-11-28 15:00:00 11.7 5 Sur 18 Sudoeste 1.6 958 -2.4 97
2019-11-28 14:00:00 11.6 6 Sudoeste 14 Sudoeste 2 958.8 -1 96
2019-11-28 13:00:00 11.4 6 Oeste 17 Sudoeste 0 959.7 -0.2 97
2019-11-28 12:00:00 11.2 10 Sudoeste 19 Sudoeste 0 960.4 1 97
2019-11-28 11:00:00 10.8 5 Sudoeste 12 Sudoeste 0 959.8 0.5 98
2019-11-28 10:00:00 10.6 8 Oeste 14 Oeste 0.4 959.9 0.8 100
2019-11-28 09:00:00 10.4 5 Sudoeste 19 Sudoeste 0.2 959.4 0.6 99
2019-11-28 08:00:00 10.6 3 Sudoeste 10 Oeste 0 959.3 0.8 98
2019-11-28 07:00:00 10.4 5 Sudoeste 12 Sudoeste 0 959.1 0.5 99
2019-11-28 06:00:00 10.4 4 Sudoeste 12 Sudoeste 0 958.8 0.4 99
2019-11-28 05:00:00 10.2 5 Sudoeste 12 Sudoeste 0.4 958.5 -0.1 100
2019-11-28 04:00:00 10.2 5 Sudoeste 15 Sudoeste 0.2 958.6 -0.2 99
2019-11-28 03:00:00 10.2 10 Sudoeste 19 Sur 0.2 958.4 -0.2 98
2019-11-28 02:00:00 10.5 9 Sudoeste 24 Sudoeste 0 958.6 0.5 95
2019-11-28 01:00:00 10.6 5 Sudoeste 17 Sudoeste 0 958.8 0.7 98
2019-11-28 00:00:00 10.4 9 Sudoeste 22 Sudoeste 0.2 958.6 0.9 99
2019-11-27 23:00:00 10.3 12 Sudoeste 21 Sudoeste 0.6 958.1 0.5 98
2019-11-27 22:00:00 9.9 7 Sudoeste 27 Oeste 0 958.1 0.6 98
2019-11-27 21:00:00 9.9 14 Sudoeste 26 Oeste 0 957.7 0.8 95
2019-11-27 20:00:00 9.8 13 Sudoeste 24 Sudoeste 0.2 957.6 0.8 98
2019-11-27 19:00:00 9.9 14 Sudoeste 25 Sudoeste 1.6 957.5 1.1 97
2019-11-27 18:00:00 10 9 Sudoeste 26 Sudoeste 1.6 956.9 0.3 97
2019-11-27 17:00:00 10.5 14 Sudoeste 29 Sudoeste 0.2 956.8 -0.4 93
2019-11-27 16:00:00 10.6 12 Sudoeste 24 Oeste 0 956.4 -1 92
2019-11-27 15:00:00 10.7 13 Sudoeste 27 Sudoeste 0 956.6 -1.1 91
2019-11-27 14:00:00 10.3 13 Sudoeste 26 Oeste 3 957.2 0.1 93
2019-11-27 06:00:00 9.6 13 Sudoeste 31 Sudoeste 0 955.2 0.9 88
2019-11-27 05:00:00 9.8 16 Sudoeste 32 Sudoeste 0 955.4 1.4 87
2019-11-27 04:00:00 9.8 16 Sudoeste 33 Sudoeste 0 955 1.4 89
2019-11-27 03:00:00 9.4 13 Sudoeste 37 Oeste 0 954.3 1.2 92
2019-11-27 02:00:00 9.7 18 Sudoeste 31 Sudoeste 0.6 954 1.6 95
2019-11-27 01:00:00 9.7 15 Sudoeste 39 Sudoeste 0.4 953.6 1.1 93
2019-11-27 00:00:00 9.1 19 Sudoeste 39 Oeste 0.4 953.1 0.9 95
2019-11-26 23:00:00 9.2 15 Sudoeste 36 Sudoeste 0.2 952.4 1 92
2019-11-26 22:00:00 9.5 15 Sudoeste 42 Sudoeste 0 952.5 1.7 88
2019-11-26 21:00:00 9.3 19 Sudoeste 37 Sudoeste 0 952.2 2.1 87
2019-11-26 20:00:00 9.3 14 Sudoeste 46 Oeste 0.2 951.4 3.2 91
2019-11-26 19:00:00 9.1 26 Oeste 50 Oeste 1.8 950.8 2.2 93
2019-11-26 18:00:00 9.7 27 Oeste 57 Sudoeste 5 950.1 1.3 92
2019-11-26 17:00:00 13.1 20 Sudoeste 51 Sudoeste 0.2 948.2 -1.7 83
2019-11-26 16:00:00 12.7 22 Sudoeste 42 Sudoeste 1.8 948.6 -3.1 91
2019-11-26 15:00:00 12.9 16 Sudoeste 42 Sudoeste 0.2 948.8 -4.3 88
2019-11-26 14:00:00 14.5 18 Sudoeste 44 Sudoeste 0 949.9 -4 70
2019-11-26 13:00:00 15.2 18 Sudoeste 46 Sudoeste 0 951.7 -2.8 71
2019-11-26 12:00:00 15 20 Sudoeste 45 Sur 0 953.1 -1.7 73
2019-11-26 11:00:00 13.9 16 Sudoeste 37 Sudoeste 0.2 953.9 -1 78
2019-11-26 10:00:00 13.3 10 Sudoeste 32 Sudoeste 0 954.5 -0.1 85
2019-11-26 09:00:00 12.6 12 Sudoeste 30 Sudoeste 0 954.8 0.5 88
2019-11-26 08:00:00 13.1 14 Sudoeste 31 Sudoeste 0 954.9 0 89
2019-11-26 07:00:00 13.5 21 Sudoeste 33 Sudoeste 0 954.6 -0.5 93
2019-11-26 06:00:00 13 10 Sudoeste 31 Sudoeste 0 954.3 -0.7 97
2019-11-26 05:00:00 13.1 13 Sudoeste 30 Sudoeste 0 954.9 -1.1 96
2019-11-26 04:00:00 13.1 14 Sudoeste 40 Sur 0 955.1 -1.7 93
2019-11-26 03:00:00 13 15 Sur 36 Sudoeste 0 955 -2.7 89
2019-11-26 02:00:00 12.9 15 Sudoeste 36 Sudoeste 0 956 -2.2 88
2019-11-26 01:00:00 12.8 17 Sudoeste 34 Sudoeste 0 956.8 -2.4 80
2019-11-26 00:00:00 12.7 11 Sur 34 Sur 0 957.7 -2.1 78
2019-11-25 23:00:00 12.7 10 Sur 28 Sur 0 958.2 -1.9 78
2019-11-25 22:00:00 12.3 11 Sur 31 Sur 0 959.2 -1.2 83
2019-11-25 21:00:00 12.2 13 Sudoeste 33 Sudoeste 0 959.8 -0.9 83
2019-11-25 20:00:00 12.1 11 Sudoeste 29 Sudoeste 0 960.1 -0.6 86
2019-11-25 19:00:00 12.1 13 Sudoeste 29 Sudoeste 0 960.4 0.2 81
2019-11-25 18:00:00 12.4 9 Sudoeste 19 Sudoeste 0 960.7 0.4 85
2019-11-25 17:00:00 13.1 13 Sudoeste 26 Sudoeste 0 960.7 -0.2 77
2019-11-25 16:00:00 13.4 13 Sudoeste 22 Sudoeste 0 960.2 -0.9 77
2019-11-25 15:00:00 12.8 7 Sudoeste 21 Sudoeste 0.2 960.3 -0.9 84
2019-11-25 14:00:00 12.3 9 Sudoeste 28 Sudoeste 0 960.9 0.1 85
2019-11-25 13:00:00 12.3 13 Sudoeste 30 Oeste 0 961.1 1.2 81
2019-11-25 12:00:00 11.7 11 Sudoeste 26 Sudoeste 0 961.2 1.9 88
2019-11-25 11:00:00 11.4 13 Sudoeste 24 Sudoeste 0 960.8 1.8 92
2019-11-25 10:00:00 10.9 10 Sudoeste 22 Sudoeste 0 959.9 1.7 98
2019-11-25 09:00:00 10.6 6 Sudoeste 18 Sudoeste 0 959.3 1.8 98
2019-11-25 08:00:00 10.5 7 Sudoeste 20 Sudoeste 1.4 959 1.6 99
2019-11-25 07:00:00 10.9 10 Sudoeste 28 Sudoeste 0.2 958.2 0.9 95
2019-11-25 06:00:00 10.7 11 Sudoeste 31 Oeste 0 957.5 0.7 94
2019-11-25 05:00:00 11 17 Sudoeste 31 Oeste 0 957.4 0.3 93
2019-11-25 04:00:00 11.1 9 Sudoeste 24 Sudoeste 0.6 957.3 0.9 98
2019-11-25 03:00:00 11.5 10 Sudoeste 29 Sudoeste 0 956.8 1.1 95
2019-11-25 02:00:00 12 13 Sudoeste 34 Sudoeste 0.4 957.1 1.4 93
2019-11-25 01:00:00 12.3 15 Sudoeste 30 Sudoeste 0.2 956.4 0.7 97
2019-11-25 00:00:00 12.4 13 Sudoeste 33 Sudoeste 0.4 955.7 0 95
2019-11-24 23:00:00 12.4 13 Sudoeste 27 Sudoeste 0.4 955.7 0.6 95
2019-11-24 22:00:00 12.1 13 Sudoeste 24 Sudoeste 0.2 955.7 0.1 96
2019-11-24 21:00:00 11.6 10 Sudoeste 28 Sudoeste 0 955.7 1.5 98
2019-11-24 20:00:00 11.5 15 Sudoeste 32 Sudoeste 0 955.1 0 96
2019-11-24 19:00:00 11 15 Sudoeste 44 Sur 0.6 955.6 -0.1 97
2019-11-24 18:00:00 10.5 16 Sur 41 Sudoeste 0.8 954.2 -2.3 96
2019-11-24 17:00:00 10.5 15 Sudoeste 39 Sur 0 955.1 -2.4 92
2019-11-24 16:00:00 10.8 16 Sudoeste 42 Sudoeste 0 955.7 -3.2 90
2019-11-24 15:00:00 10.8 9 Sudoeste 35 Sur 0.2 956.5 -3.5 88
2019-11-24 14:00:00 10 12 Sur 30 Sur 0 957.5 -2.9 88
2019-11-24 13:00:00 9.5 9 Sudoeste 36 Sur 0 958.9 -1.6 91
2019-11-24 12:00:00 10.2 15 Sudoeste 33 Sudoeste 0.2 960 -0.4 81
2019-11-24 11:00:00 8.5 9 Sur 30 Sur 0 960.4 -0.1 87
2019-11-24 10:00:00 8.2 8 Sur 26 Sudoeste 0 960.5 -0.1 88
2019-11-24 09:00:00 7.5 7 Sudoeste 21 Sur 0 960.4 -0.2 92
2019-11-24 08:00:00 6.9 7 Sudoeste 18 Sudoeste 0 960.5 -0.5 92
2019-11-24 07:00:00 6.9 6 Sudoeste 19 Sur 0 960.6 -0.7 91
2019-11-24 06:00:00 7 8 Sur 19 Sur 0 960.6 -0.2 91
2019-11-24 05:00:00 7.2 8 Sudoeste 18 Sudoeste 0 961 0.2 92
2019-11-24 04:00:00 7.1 8 Sudoeste 20 Sudoeste 0 961.3 0.5 94
2019-11-24 03:00:00 7.1 6 Sudoeste 16 Sudoeste 0 960.8 0.5 94
2019-11-24 02:00:00 7.2 8 Sudoeste 15 Oeste 0 960.8 0.6 95
2019-11-24 01:00:00 7.4 6 Sudoeste 19 Sudoeste 0 960.8 0.9 94
2019-11-24 00:00:00 7.2 10 Sudoeste 17 Sudoeste 0 960.3 0.5 95
2019-11-23 23:00:00 6.5 6 Sudoeste 12 Sudoeste 0 960.2 0.9 98
2019-11-23 22:00:00 6.8 8 Sudoeste 20 Oeste 0 959.9 1.3 96
2019-11-23 21:00:00 6.6 9 Sudoeste 13 Sudoeste 0 959.8 2.1 97
2019-11-23 20:00:00 6.7 3 Sudoeste 12 Oeste 0 959.3 2.4 95
2019-11-23 19:00:00 7.6 6 Oeste 21 Oeste 0 958.6 2.3 95
2019-11-23 18:00:00 8.4 9 Oeste 19 Oeste 0 957.7 2.2 92
2019-11-23 17:00:00 9.4 7 Oeste 22 Noroeste 0 956.9 1.7 91
2019-11-23 16:00:00 9.1 6 Oeste 21 Noroeste 2.4 956.3 1.2 95
2019-11-23 15:00:00 10 8 Norte 23 Noroeste 0.6 955.5 1.1 85
2019-11-23 14:00:00 11.3 10 Oeste 26 Oeste 0 955.2 1.8 83
2019-11-23 13:00:00 9.2 6 Oeste 32 Noroeste 0.6 955.1 2.6 88
2019-11-23 12:00:00 9.5 5 Oeste 13 Oeste 0 954.4 3 88
2019-11-23 11:00:00 8.2 3 Oeste 19 Oeste 0.2 953.4 3.1 95
2019-11-23 10:00:00 7.2 10 Oeste 17 Oeste 0 952.5 3.5 97
2019-11-23 09:00:00 6.6 6 Oeste 13 Oeste 0 951.4 3.4 97
2019-11-23 08:00:00 6.6 4 Noroeste 19 Sudoeste 0.4 950.3 3.4 98
2019-11-23 07:00:00 6.4 3 Sudoeste 15 Sudoeste 1 949 2.9 96
2019-11-23 06:00:00 6.2 6 Oeste 16 Sudoeste 0.2 948 3.3 95
2019-11-23 05:00:00 6.2 7 Oeste 17 Oeste 0 946.9 3.9 94
2019-11-23 04:00:00 6.4 8 Oeste 27 Noroeste 0 946.1 4.7 92
2019-11-23 03:00:00 7.1 9 Oeste 33 Norte 0 944.7 5.1 88
2019-11-23 02:00:00 6.7 10 Oeste 37 Noroeste 0.2 943 5.4 88
2019-11-23 01:00:00 7.3 10 Oeste 42 Oeste 1.6 941.4 5.3 97
2019-11-23 00:00:00 7.7 10 Oeste 38 Oeste 3.4 939.6 4.8 98
2019-11-22 23:00:00 8 16 Oeste 32 Oeste 6.2 937.6 3.7 99
2019-11-22 22:00:00 8.2 18 Oeste 41 Oeste 2 936.1 2.9 97
2019-11-22 21:00:00 8.9 20 Oeste 47 Sudoeste 1.4 934.8 2.3 97
2019-11-22 20:00:00 9.2 17 Sudoeste 46 Sudoeste 0.4 933.9 2.3 94
2019-11-22 19:00:00 9.3 25 Sudoeste 44 Sudoeste 0.4 933.2 0.4 95
2019-11-22 18:00:00 9.5 23 Oeste 44 Oeste 2 932.5 -0.9 94
2019-11-22 17:00:00 9.3 15 Sudoeste 44 Sudoeste 1.8 931.6 -2.4 95
2019-11-22 16:00:00 9.7 21 Sudoeste 41 Sudoeste 0.6 932.8 -1.5 91
2019-11-22 15:00:00 10.1 19 Sudoeste 46 Sudoeste 0.8 933.4 -1.4 90
2019-11-22 14:00:00 10.6 19 Sudoeste 48 Oeste 1.8 934 0.9 90
2019-11-22 13:00:00 12.2 21 Oeste 38 Sudoeste 0 934.3 0.8 83
2019-11-22 12:00:00 10.6 14 Oeste 69 Oeste 1.4 934.8 0.9 94
2019-11-22 11:00:00 11 12 Sudoeste 41 Sur 1.8 933.1 -2.5 96
2019-11-22 10:00:00 10 13 Sur 37 Sudoeste 2.2 933.5 -3.6 96
2019-11-22 09:00:00 9.5 13 Sur 39 Sur 2.4 933.9 -4.3 95
2019-11-22 08:00:00 9.5 16 Sur 44 Sudoeste 0.2 935.6 -4.4 89
2019-11-22 07:00:00 8.9 15 Sur 39 Sur 0 937.1 -5.5 90
2019-11-22 06:00:00 8.6 16 Sur 50 Sudoeste 0 938.2 -6.3 88
2019-11-22 05:00:00 8.1 14 Sur 39 Sur 0 940 -6.2 87
2019-11-22 04:00:00 7.7 14 Sur 34 Sur 0 942.6 -4.8 92
2019-11-22 03:00:00 7.8 11 Sur 27 Sur 0 944.5 -4.4 88
2019-11-22 02:00:00 8.3 9 Sudoeste 33 Sudeste 0 946.2 -3.8 81
2019-11-22 01:00:00 8.1 9 Sur 31 Sudoeste 0 947.4 -3.2 76
2019-11-22 00:00:00 8 9 Sudoeste 25 Sur 0 948.9 -2.3 76
2019-11-21 23:00:00 7.9 9 Sur 21 Sur 0 950 -1.8 82
2019-11-21 22:00:00 7.8 8 Sur 25 Sur 0 950.6 -1.6 86
2019-11-21 21:00:00 7.4 8 Sur 19 Sur 0 951.2 -1.1 86
2019-11-21 20:00:00 7.5 8 Sur 19 Sur 0 951.8 -0.4 85
2019-11-21 19:00:00 7.6 3 Oeste 6 Oeste 0 952.2 0 89
2019-11-21 18:00:00 8.3 4 Sudoeste 15 Oeste 0 952.3 -0.1 85
2019-11-21 17:00:00 9.2 9 Oeste 20 Oeste 0 952.2 -0.3 79
2019-11-21 16:00:00 9.9 11 Sudoeste 32 Oeste 0 952.2 -0.6 71
2019-11-21 15:00:00 9.4 5 Oeste 24 Sudoeste 0 952.4 -1 86
2019-11-21 14:00:00 11 15 Sudoeste 31 Sudoeste 0 952.5 -0.8 72
2019-11-21 13:00:00 10.5 12 Sudoeste 26 Sur 0 952.8 -0.5 79
2019-11-21 12:00:00 9.5 11 Sudoeste 24 Sur 0 953.4 0.5 82
2019-11-21 11:00:00 8 9 Sudoeste 23 Sudoeste 0 953.3 0.8 87
2019-11-21 10:00:00 6.6 8 Sudoeste 22 Sur 0 953.3 1.2 90
2019-11-21 09:00:00 6 9 Sudoeste 26 Sur 0 952.9 0.8 91
2019-11-21 08:00:00 6 8 Sudoeste 17 Sudoeste 0 952.5 0.5 93
2019-11-21 07:00:00 5.9 8 Sudoeste 19 Sudoeste 0 952.1 0 93
2019-11-21 06:00:00 5.7 9 Sudoeste 19 Sudoeste 0 952.1 0.1 93
2019-11-21 05:00:00 5.5 8 Sudoeste 21 Sudoeste 0 952 -0.1 93
2019-11-21 04:00:00 5.8 8 Sudoeste 20 Sur 0 952.1 -0.2 93
2019-11-21 03:00:00 6.2 5 Sudoeste 18 Sudoeste 0 952 0.2 96
2019-11-21 02:00:00 6.4 8 Sudoeste 19 Sudoeste 0 952.1 0 94
2019-11-21 01:00:00 6.6 8 Sudoeste 22 Sudoeste 0.4 952.3 0.2 94
2019-11-21 00:00:00 6.5 8 Sur 23 Sur 0.2 951.8 -0.5 93
2019-11-20 23:00:00 6.6 8 Sur 23 Sur 0 952.1 0 92
2019-11-20 22:00:00 6.6 8 Sur 23 Sur 0.2 952.1 0.2 93
2019-11-20 21:00:00 7 8 Sur 22 Sur 0.2 952.3 0.4 94
2019-11-20 20:00:00 6.9 7 Sur 22 Sur 0 952.1 -0.1 92
2019-11-20 19:00:00 7 8 Sur 21 Sur 0 951.9 0 90
2019-11-20 18:00:00 7.4 9 Sur 22 Sudoeste 0 951.9 -0.1 90
2019-11-20 17:00:00 7.7 11 Sudoeste 22 Sudoeste 0.4 952.2 -0.3 93
2019-11-20 16:00:00 8.5 6 Oeste 27 Oeste 0.4 951.9 -1.2 91
2019-11-20 15:00:00 10.1 8 Sudoeste 18 Sudoeste 0 952 -1.8 79
2019-11-20 14:00:00 11.6 9 Sudoeste 26 Sudoeste 0 952.5 -1.7 71
2019-11-20 13:00:00 11.6 10 Sudoeste 24 Sur 0 953.1 -1.4 76
2019-11-20 12:00:00 9.8 9 Sudoeste 23 Sur 0 953.8 -0.8 85
2019-11-20 11:00:00 8.7 10 Sudoeste 22 Sudoeste 0 954.2 -0.3 88
2019-11-20 10:00:00 7.3 5 Sur 15 Sur 0 954.5 -0.4 95
2019-11-20 09:00:00 5.5 5 Sudoeste 11 Sur 0 954.6 -0.6 100
2019-11-20 08:00:00 4 3 Sur 6 Sur 0 954.5 -1 99
2019-11-20 07:00:00 4.6 0 Calma 5 Nordeste 0 954.9 -1.4 96
2019-11-20 06:00:00 5.3 3 Nordeste 8 Sudoeste 0 955.2 -1.7 98
2019-11-20 05:00:00 6 3 Sudoeste 9 Sudoeste 0 955.5 -2 96
2019-11-20 04:00:00 6.6 4 Oeste 16 Sudoeste 0 956.3 -1.7 94
2019-11-20 03:00:00 7.1 6 Sudoeste 15 Sudoeste 0 956.9 -1.4 97
2019-11-20 02:00:00 7.3 7 Sudoeste 17 Sudoeste 0 957.5 -1.3 97
2019-11-20 01:00:00 7.5 7 Sudoeste 17 Sur 0 958 -1 96
2019-11-20 00:00:00 7.5 6 Sudoeste 18 Sudoeste 0.2 958.3 -1.1 97
2019-11-19 23:00:00 7.8 7 Sudoeste 18 Sudoeste 0 958.8 -1 96
2019-11-19 22:00:00 7.7 8 Sur 22 Sur 0 959 -0.9 95
2019-11-19 21:00:00 7.3 5 Sudoeste 14 Sudoeste 0 959.4 -0.2 98
2019-11-19 20:00:00 7.6 6 Oeste 10 Oeste 0.2 959.8 -0.1 97
2019-11-19 19:00:00 7.9 4 Oeste 17 Sur 0 959.9 -0.2 95
2019-11-19 18:00:00 7.9 7 Sur 22 Sur 0 959.6 -1.1 93
2019-11-19 17:00:00 7.9 7 Sudoeste 19 Sudoeste 0.8 959.9 -1.4 93
2019-11-19 16:00:00 9.1 8 Sur 27 Sur 0 960.1 -2 79
2019-11-19 15:00:00 9.7 8 Sudoeste 24 Sur 0 960.7 -2.3 74
2019-11-19 14:00:00 9.6 8 Sudoeste 22 Sudoeste 0 961.3 -2 68
2019-11-19 13:00:00 9.9 10 Sudoeste 27 Sudoeste 0 962.1 -1.5 67
2019-11-19 12:00:00 7.7 6 Sur 21 Sudoeste 0 963 -0.6 79
2019-11-19 11:00:00 4.8 2 Norte 8 Norte 0 963.3 -0.3 100
2019-11-19 10:00:00 2.3 3 Nordeste 5 Nordeste 0 963.6 0.1 100
2019-11-19 09:00:00 1.2 0 Calma 5 Sudoeste 0 963.6 -0.1 98
2019-11-19 08:00:00 1.4 3 Noroeste 8 Sur 0 963.6 -0.5 97
2019-11-19 07:00:00 0.7 4 Sur 7 Sur 0 963.5 -1.2 97
2019-11-19 06:00:00 1.2 3 Oeste 18 Sur 0 963.7 -1.1 95
2019-11-19 05:00:00 0.6 0 Calma 5 Noroeste 0 964.1 -1.2 97
2019-11-19 04:00:00 0.7 3 Nordeste 7 Noroeste 0 964.7 -0.9 98
2019-11-19 03:00:00 1.3 0 Calma 3 Noroeste 0 964.8 -1 96
2019-11-19 02:00:00 1.6 0 Calma 5 Este 0 965.3 -1.1 96
2019-11-19 01:00:00 1.9 0 Calma 4 Sudeste 0 965.6 -0.8 95
2019-11-19 00:00:00 2.7 3 Sudeste 6 Sudeste 0 965.8 -0.6 95
2019-11-18 23:00:00 3.8 0 Calma 6 Sudeste 0 966.4 -0.2 94
2019-11-18 22:00:00 5.5 3 Sudeste 9 Sudeste 0 966.4 -0.2 93
2019-11-18 21:00:00 6.9 4 Sudeste 8 Sur 0 966.4 0.1 91
2019-11-18 20:00:00 8.2 3 Sudeste 5 Sudeste 0 966.6 0.4 93
2019-11-18 19:00:00 9.1 0 Calma 6 Sudeste 0 966.6 0.5 90
2019-11-18 18:00:00 9.5 0 Calma 4 Nordeste 0 966.3 0.1 86
2019-11-18 17:00:00 10.3 0 Calma 4 Nordeste 0 966.2 -0.5 79
2019-11-18 16:00:00 10.2 3 Nordeste 7 Sudeste 0 966.1 -0.9 76
2019-11-18 15:00:00 10.3 3 Sur 7 Sudeste 0 966.2 -1.2 74
2019-11-18 14:00:00 10.2 0 Calma 7 Sur 0 966.7 -0.6 76
2019-11-18 13:00:00 8.6 4 Sudeste 7 Sudeste 0 967 0 90
2019-11-18 12:00:00 7.6 3 Sudoeste 8 Sudoeste 0 967.4 1.1 92
2019-11-18 11:00:00 7.2 4 Sudoeste 10 Sudoeste 0 967.3 1.7 97
2019-11-18 10:00:00 6.4 3 Sudoeste 6 Sudoeste 0 967 2 97
2019-11-18 09:00:00 5.1 2 Sur 6 Oeste 0.4 966.3 1.4 99
2019-11-18 08:00:00 5 5 Oeste 9 Oeste 0 965.6 1.3 100
2019-11-18 07:00:00 4.6 3 Sur 5 Sudeste 0 965 1.1 98
2019-11-18 06:00:00 4.8 2 Sur 8 Oeste 0 964.9 1.4 98
2019-11-18 05:00:00 5.1 4 Oeste 8 Sudoeste 0.6 964.3 1 99
2019-11-18 04:00:00 5.3 3 Sudoeste 6 Sudoeste 0 963.9 0.5 99
2019-11-18 03:00:00 5.4 3 Oeste 10 Nordeste 0.6 963.5 0.3 100
2019-11-18 02:00:00 4.9 2 Oeste 6 Sudeste 0 963.3 0.7 99
2019-11-18 01:00:00 5 2 Sudeste 6 Sudeste 0.4 963.4 1 99
2019-11-18 00:00:00 4.6 3 Sudeste 5 Sudeste 0 963.2 1.4 98
2019-11-17 23:00:00 5.5 2 Sudoeste 23 Nordeste 0.4 962.6 1.3 93
2019-11-17 22:00:00 6.4 4 Noroeste 10 Oeste 0.4 962.4 1.9 98
2019-11-17 21:00:00 6.2 3 Sur 10 Norte 0 961.8 1.4 95
2019-11-17 20:00:00 7.1 3 Oeste 17 Noroeste 0 961.3 1 96
2019-11-17 19:00:00 7.3 8 Oeste 19 Oeste 1 960.5 0.2 96
2019-11-17 18:00:00 8 7 Oeste 23 Sudoeste 0.2 960.4 0.2 92
2019-11-17 17:00:00 9.1 8 Oeste 19 Oeste 0 960.3 -0.4 84
2019-11-17 16:00:00 9.2 9 Noroeste 26 Oeste 0 960.3 -0.6 81
2019-11-17 15:00:00 10.8 8 Noroeste 19 Noroeste 0.2 960.2 -1.1 75
2019-11-17 14:00:00 8.9 9 Noroeste 31 Norte 0.4 960.7 -0.3 90
2019-11-17 13:00:00 9.5 6 Oeste 20 Noroeste 0 960.9 0 90
2019-11-17 12:00:00 9.2 5 Noroeste 16 Oeste 0.4 961.3 0.9 94
2019-11-17 11:00:00 8.3 8 Oeste 19 Oeste 0 961 1.1 95
2019-11-17 10:00:00 8.3 6 Oeste 15 Oeste 0 960.9 0.8 100
2019-11-17 09:00:00 8.2 4 Oeste 15 Oeste 0 960.4 0.9 100
2019-11-17 08:00:00 8 6 Sudoeste 15 Sudoeste 0 959.9 0.2 99
2019-11-17 07:00:00 7.5 11 Sudoeste 18 Sur 0 960.1 -0.4 99
2019-11-17 06:00:00 7.6 8 Sudoeste 23 Sur 0 959.5 -1.4 97
2019-11-17 05:00:00 7.4 10 Sur 23 Sur 0 959.7 -1.6 96
2019-11-17 04:00:00 7 9 Sudoeste 19 Sudoeste 0 960.5 -1.7 96
2019-11-17 03:00:00 6.9 6 Sudoeste 20 Sur 0 960.9 -1.8 94
2019-11-17 02:00:00 6.7 9 Sur 19 Sur 0 961.3 -1.5 93
2019-11-17 01:00:00 6.6 8 Sur 23 Sur 0 962.2 -1 92
2019-11-17 00:00:00 6.6 8 Sur 22 Sur 0 962.7 -0.7 93
2019-11-16 23:00:00 6.6 7 Sur 19 Sur 0 962.8 -0.8 93
2019-11-16 22:00:00 6.4 6 Sudoeste 21 Sudoeste 0 963.2 -0.3 94
2019-11-16 21:00:00 6.4 7 Sudoeste 20 Oeste 0 963.4 -0.5 92
2019-11-16 20:00:00 6.4 6 Sudoeste 14 Sudoeste 0 963.6 -0.3 91
2019-11-16 19:00:00 6.3 5 Sudoeste 14 Sudoeste 0 963.5 -0.1 93
2019-11-16 18:00:00 6.4 10 Sudoeste 17 Sudoeste 0 963.9 0.1 92
2019-11-16 17:00:00 6.8 8 Sudoeste 15 Sudoeste 0 963.9 0.3 90
2019-11-16 16:00:00 6.6 8 Sudoeste 15 Oeste 1 963.6 -0.4 94
2019-11-16 15:00:00 8.1 6 Oeste 21 Oeste 0 963.8 -0.5 82
2019-11-16 14:00:00 8.8 12 Oeste 23 Oeste 0 963.6 -1 70
2019-11-16 13:00:00 8.8 12 Sudoeste 18 Oeste 0 964 -0.4 80
2019-11-16 12:00:00 7.9 8 Sudoeste 17 Sudoeste 0 964.3 0.6 85
2019-11-16 11:00:00 5.5 8 Sudoeste 14 Sudoeste 0 964.6 1.3 95
2019-11-16 10:00:00 5.2 2 Sudoeste 10 Sur 0 964.4 1.5 95
2019-11-16 09:00:00 3.5 5 Sur 10 Sur 0.2 963.7 1.2 100
2019-11-16 08:00:00 3.8 3 Sur 10 Sudoeste 0 963.3 1.1 96
2019-11-16 07:00:00 4.5 3 Sudoeste 7 Sudoeste 0.2 962.9 0.6 99
2019-11-16 06:00:00 4.2 3 Sudoeste 7 Sudoeste 0 962.5 0.6 99
2019-11-16 05:00:00 4.1 3 Sudoeste 8 Oeste 0.2 962.2 0.6 99
2019-11-16 04:00:00 3.7 3 Sudeste 8 Sudoeste 0.8 962.3 0.7 100
2019-11-16 03:00:00 3.6 3 Sudoeste 6 Oeste 0.6 961.9 1.3 98
2019-11-16 02:00:00 3.9 5 Oeste 16 Oeste 3.6 961.6 1.2 99
2019-11-16 01:00:00 3.7 2 Sur 12 Sudoeste 0.4 961.6 1.7 99
2019-11-16 00:00:00 3.9 6 Oeste 12 Oeste 0.4 960.6 1.3 98
2019-11-15 23:00:00 3.8 2 Sudoeste 14 Oeste 0.8 960.4 1.4 98
2019-11-15 22:00:00 4.1 6 Oeste 19 Noroeste 0.8 959.9 1.4 99
2019-11-15 21:00:00 4 5 Oeste 11 Sudoeste 0 959.3 1.6 98
2019-11-15 20:00:00 4.2 3 Oeste 10 Este 2.6 959 1.5 97
2019-11-15 19:00:00 4.1 5 Norte 13 Norte 0.4 958.5 0.9 98
2019-11-15 18:00:00 4 5 Oeste 15 Noroeste 2.2 957.7 0.5 99
2019-11-15 17:00:00 3.7 6 Noroeste 18 Norte 4.2 957.5 0.3 99
2019-11-15 16:00:00 3.7 8 Noroeste 23 Noroeste 3.4 957.6 0.1 95
2019-11-15 15:00:00 5.3 9 Norte 30 Noroeste 0.4 957.2 -1.3 93
2019-11-15 14:00:00 5.3 5 Noroeste 23 Norte 1.8 957.2 -1.2 94
2019-11-15 13:00:00 6.7 7 Oeste 17 Oeste 0 957.5 -0.6 90
2019-11-15 12:00:00 4 10 Noroeste 21 Noroeste 0.8 958.5 1 95
2019-11-15 11:00:00 4.2 6 Norte 15 Norte 0.4 958.4 1.3 95
2019-11-15 10:00:00 3.6 3 Oeste 17 Noroeste 0.2 958.1 1.4 98
2019-11-15 09:00:00 2.9 0 Calma 11 Oeste 0.2 957.5 1.1 95
2019-11-15 08:00:00 3.5 4 Sudoeste 9 Sudoeste 0 957.1 0.8 97
2019-11-15 07:00:00 3.4 2 Sudeste 17 Sudoeste 0 956.7 0.7 97
2019-11-15 06:00:00 3.5 4 Oeste 23 Norte 0 956.4 0.2 96
2019-11-15 05:00:00 3.3 5 Oeste 14 Oeste 0 956.3 0.2 100
2019-11-15 04:00:00 2.9 5 Oeste 16 Norte 4 956 -0.2 98
2019-11-15 03:00:00 3.2 2 Oeste 18 Noroeste 0.6 956.2 0.6 98
2019-11-15 02:00:00 3.2 4 Noroeste 24 Noroeste 1.6 956.1 0.8 99
2019-11-15 01:00:00 3.4 9 Noroeste 31 Norte 1.4 956.2 1.5 97
2019-11-15 00:00:00 3.9 10 Noroeste 28 Nordeste 1.6 955.6 1.3 96
2019-11-14 23:00:00 4.4 10 Noroeste 27 Noroeste 1.8 955.3 0.7 97
2019-11-14 22:00:00 4.8 12 Noroeste 25 Noroeste 0.4 954.7 1.3 97
2019-11-14 21:00:00 4.6 4 Oeste 24 Noroeste 1.2 954.3 2 99
2019-11-14 20:00:00 4.9 12 Noroeste 28 Noroeste 2.6 954.6 3.5 98
2019-11-14 19:00:00 5.3 12 Noroeste 33 Noroeste 1 953.4 3.2 96
2019-11-14 18:00:00 5.5 13 Noroeste 37 Noroeste 1.2 952.3 2.9 94
2019-11-14 17:00:00 6 14 Noroeste 41 Norte 0.8 951.1 3 92
2019-11-14 16:00:00 6.1 13 Noroeste 42 Noroeste 0.8 950.2 2.7 94
2019-11-14 15:00:00 8.1 16 Noroeste 40 Noroeste 0 949.4 1 80
2019-11-14 14:00:00 8.1 18 Noroeste 44 Noroeste 0 948.1 -0.3 86
2019-11-14 13:00:00 6.8 9 Oeste 33 Noroeste 0.6 947.5 -2.1 94
2019-11-14 12:00:00 4.4 12 Oeste 27 Sudoeste 3.2 948.4 -2.9 99
2019-11-14 11:00:00 3.6 10 Sudoeste 33 Sudoeste 2.4 948.4 -3.6 99
2019-11-14 10:00:00 2.9 10 Sudoeste 27 Sur 4.2 949.6 -3.4 96
2019-11-14 09:00:00 3.6 10 Sudoeste 25 Sudoeste 0 951.3 -2.9 95
2019-11-14 08:00:00 3.3 9 Sudoeste 24 Sur 0.4 952 -3.1 97
2019-11-14 07:00:00 2.6 9 Sudoeste 19 Sudoeste 2.8 953 -2.2 98
2019-11-14 06:00:00 3.3 4 Sudoeste 25 Noroeste 0.6 954.2 -2 97
2019-11-14 05:00:00 3.4 12 Oeste 46 Noroeste 1.8 955.1 -1.4 97
2019-11-14 04:00:00 4.2 5 Sudoeste 16 Oeste 0.2 955.2 -1.7 95
2019-11-14 03:00:00 5 5 Noroeste 25 Oeste 0.8 956.2 -0.1 98
2019-11-14 02:00:00 4.9 10 Oeste 31 Norte 2.2 956.5 -0.4 96
2019-11-14 01:00:00 6.5 8 Oeste 25 Oeste 2 956.9 -0.2 95
2019-11-14 00:00:00 7.5 8 Oeste 33 Oeste 0.4 956.3 -1.8 96
2019-11-13 23:00:00 8.2 9 Oeste 29 Oeste 3 956.9 -2.4 97
2019-11-13 22:00:00 8.6 11 Sudoeste 37 Oeste 1.4 957.1 -3.4 97
2019-11-13 21:00:00 8.9 17 Sudoeste 32 Sudoeste 0 958.1 -3.2 89
2019-11-13 20:00:00 9.1 14 Sudoeste 27 Sudoeste 0 959.3 -1.6 88
2019-11-13 19:00:00 9.5 14 Sudoeste 33 Oeste 0 960.5 -1.2 80
2019-11-13 18:00:00 10.3 10 Oeste 26 Sudoeste 0 961.3 -0.6 85
2019-11-13 17:00:00 11 11 Oeste 28 Oeste 0 960.9 -2.1 82
2019-11-13 16:00:00 11.9 8 Oeste 20 Oeste 0 961.7 -1.8 81
2019-11-13 15:00:00 11.4 12 Oeste 21 Oeste 0 961.9 -2.1 81
2019-11-13 14:00:00 10.8 7 Oeste 18 Oeste 0 963 -0.1 84
2019-11-13 13:00:00 10.6 8 Oeste 20 Noroeste 0 963.5 0.7 89
2019-11-13 12:00:00 10.2 5 Noroeste 14 Norte 0.2 964 1.9 96
2019-11-13 11:00:00 10.1 3 Norte 10 Noroeste 0 963.1 2 94
2019-11-13 10:00:00 9.6 0 Calma 8 Este 0 962.8 2.9 97
2019-11-13 09:00:00 9.3 2 Norte 11 Nordeste 0 962.1 3.1 99
2019-11-13 08:00:00 9.4 2 Norte 12 Nordeste 0 961.1 3.2 97
2019-11-13 07:00:00 9.8 3 Norte 13 Noroeste 0.2 959.9 2.5 99
2019-11-13 06:00:00 10.2 3 Norte 14 Norte 0 959 2.5 98
2019-11-13 05:00:00 10.3 3 Norte 15 Norte 0 957.9 2.1 99
2019-11-13 04:00:00 10.6 3 Norte 17 Nordeste 0 957.4 2.5 97
2019-11-13 03:00:00 11.3 4 Norte 14 Nordeste 0 956.5 2.2 97
2019-11-13 02:00:00 12.1 4 Norte 15 Norte 0.2 955.8 1.6 98
2019-11-13 01:00:00 12.6 9 Noroeste 26 Norte 4.4 954.9 0.3 99
2019-11-13 00:00:00 13.2 9 Oeste 22 Oeste 4 954.3 -0.9 100
2019-11-12 23:00:00 13 9 Sudoeste 19 Sudoeste 2.4 954.2 -1.5 100
2019-11-12 22:00:00 12.8 11 Sudoeste 21 Sudoeste 0.4 954.6 -1.4 100
2019-11-12 21:00:00 12.4 10 Sudoeste 21 Sudoeste 0.6 955.2 -1.6 100
2019-11-12 20:00:00 11.8 10 Sudoeste 22 Sur 1.8 955.7 -1.4 99
2019-11-12 19:00:00 11.3 10 Sudoeste 23 Sur 4 956 -1.9 99
2019-11-12 18:00:00 10.4 10 Sudoeste 32 Sudoeste 3.8 956.8 -2.6 99
2019-11-12 17:00:00 9.9 14 Sudoeste 33 Sur 2.8 957.1 -4 98
2019-11-12 16:00:00 9.5 13 Sudoeste 35 Sudoeste 1.6 957.9 -5 97
2019-11-12 15:00:00 9.5 13 Sudoeste 32 Sur 0.6 959.4 -4.7 95
2019-11-12 14:00:00 9 12 Sudoeste 32 Sudoeste 0.2 961.1 -3.6 95
2019-11-12 13:00:00 8.6 10 Sur 26 Sudoeste 0.2 962.9 -2.7 95
2019-11-12 12:00:00 8.7 10 Sudoeste 26 Sur 0.2 964.1 -1.9 95
2019-11-12 11:00:00 8.2 9 Sur 22 Sur 0 964.7 -1 96
2019-11-12 10:00:00 7.9 8 Sudoeste 17 Sur 0 965.6 -0.5 95
2019-11-12 09:00:00 7.1 5 Sudoeste 16 Sudoeste 0.2 966 -0.5 98
2019-11-12 08:00:00 6.8 6 Sudoeste 14 Sudoeste 0.2 965.7 -1 98
2019-11-12 07:00:00 6.8 6 Sudoeste 13 Sur 0.2 966.1 -1.3 98
2019-11-12 06:00:00 6.8 7 Sudoeste 15 Sudoeste 0.2 966.5 -1.1 96
2019-11-12 05:00:00 7 5 Sudoeste 10 Sur 0 966.7 -1.5 93
2019-11-12 04:00:00 7.2 4 Sudoeste 12 Sudoeste 0 967.4 -1.6 91
2019-11-12 03:00:00 7.2 4 Sur 12 Sur 0 967.6 -1.7 92
2019-11-12 02:00:00 7 5 Sudoeste 12 Sur 0 968.2 -1.2 92
2019-11-12 01:00:00 6.6 6 Sudoeste 14 Sudoeste 0 969 -0.2 94
2019-11-12 00:00:00 6.3 0 Calma 5 Sudoeste 0 969.3 -0.5 96